sensor_id;sensor_type;location;lat;lon;timestamp;P1;durP1;ratioP1;P2;durP2;ratioP2
12429;SDS011;6279;42.192;24.326;2023-01-08T00:00:04;15.47;;;10.27;;
12429;SDS011;6279;42.192;24.326;2023-01-08T00:02:30;15.90;;;10.10;;
12429;SDS011;6279;42.192;24.326;2023-01-08T00:04:55;14.33;;;9.57;;
12429;SDS011;6279;42.192;24.326;2023-01-08T00:07:21;16.17;;;11.03;;
12429;SDS011;6279;42.192;24.326;2023-01-08T00:09:49;15.27;;;10.90;;
12429;SDS011;6279;42.192;24.326;2023-01-08T00:12:16;14.10;;;9.40;;
12429;SDS011;6279;42.192;24.326;2023-01-08T00:14:41;17.60;;;11.43;;
12429;SDS011;6279;42.192;24.326;2023-01-08T00:17:06;18.80;;;12.07;;
12429;SDS011;6279;42.192;24.326;2023-01-08T00:19:32;24.23;;;15.53;;
12429;SDS011;6279;42.192;24.326;2023-01-08T00:21:58;32.03;;;19.73;;
12429;SDS011;6279;42.192;24.326;2023-01-08T00:24:26;32.47;;;22.00;;
12429;SDS011;6279;42.192;24.326;2023-01-08T00:26:52;21.53;;;15.07;;
12429;SDS011;6279;42.192;24.326;2023-01-08T00:29:21;20.33;;;11.17;;
12429;SDS011;6279;42.192;24.326;2023-01-08T00:31:46;14.17;;;10.77;;
12429;SDS011;6279;42.192;24.326;2023-01-08T00:34:12;14.07;;;10.23;;
12429;SDS011;6279;42.192;24.326;2023-01-08T00:36:37;15.73;;;10.57;;
12429;SDS011;6279;42.192;24.326;2023-01-08T00:39:03;16.93;;;11.20;;
12429;SDS011;6279;42.192;24.326;2023-01-08T00:41:28;16.63;;;11.90;;
12429;SDS011;6279;42.192;24.326;2023-01-08T00:43:56;19.43;;;11.07;;
12429;SDS011;6279;42.192;24.326;2023-01-08T00:46:21;15.07;;;10.90;;
12429;SDS011;6279;42.192;24.326;2023-01-08T00:48:47;18.00;;;11.43;;
12429;SDS011;6279;42.192;24.326;2023-01-08T00:51:12;17.47;;;11.10;;
12429;SDS011;6279;42.192;24.326;2023-01-08T00:53:38;16.30;;;11.03;;
12429;SDS011;6279;42.192;24.326;2023-01-08T00:56:04;16.67;;;10.53;;
12429;SDS011;6279;42.192;24.326;2023-01-08T00:58:31;16.87;;;10.70;;
12429;SDS011;6279;42.192;24.326;2023-01-08T01:00:56;16.23;;;9.50;;
12429;SDS011;6279;42.192;24.326;2023-01-08T01:03:25;13.07;;;9.67;;
12429;SDS011;6279;42.192;24.326;2023-01-08T01:05:58;18.70;;;11.77;;
12429;SDS011;6279;42.192;24.326;2023-01-08T01:08:28;12.87;;;9.30;;
12429;SDS011;6279;42.192;24.326;2023-01-08T01:10:53;14.20;;;8.43;;
12429;SDS011;6279;42.192;24.326;2023-01-08T01:13:18;12.37;;;8.20;;
12429;SDS011;6279;42.192;24.326;2023-01-08T01:15:44;14.53;;;8.77;;
12429;SDS011;6279;42.192;24.326;2023-01-08T01:18:09;13.53;;;9.37;;
12429;SDS011;6279;42.192;24.326;2023-01-08T01:20:35;17.07;;;10.07;;
12429;SDS011;6279;42.192;24.326;2023-01-08T01:23:00;18.83;;;9.77;;
12429;SDS011;6279;42.192;24.326;2023-01-08T01:25:28;14.60;;;8.17;;
12429;SDS011;6279;42.192;24.326;2023-01-08T01:27:53;13.63;;;8.50;;
12429;SDS011;6279;42.192;24.326;2023-01-08T01:30:19;12.47;;;7.67;;
12429;SDS011;6279;42.192;24.326;2023-01-08T01:32:44;14.73;;;9.33;;
12429;SDS011;6279;42.192;24.326;2023-01-08T01:35:10;11.47;;;7.60;;
12429;SDS011;6279;42.192;24.326;2023-01-08T01:37:38;13.40;;;7.80;;
12429;SDS011;6279;42.192;24.326;2023-01-08T01:40:03;14.67;;;8.77;;
12429;SDS011;6279;42.192;24.326;2023-01-08T01:42:30;13.90;;;10.07;;
12429;SDS011;6279;42.192;24.326;2023-01-08T01:45:12;12.90;;;8.57;;
12429;SDS011;6279;42.192;24.326;2023-01-08T01:50:41;14.50;;;9.97;;
12429;SDS011;6279;42.192;24.326;2023-01-08T01:55:43;13.93;;;9.53;;
12429;SDS011;6279;42.192;24.326;2023-01-08T01:58:17;15.30;;;9.40;;
12429;SDS011;6279;42.192;24.326;2023-01-08T02:00:48;15.80;;;9.50;;
12429;SDS011;6279;42.192;24.326;2023-01-08T02:03:15;15.60;;;7.73;;
12429;SDS011;6279;42.192;24.326;2023-01-08T02:05:55;12.97;;;8.47;;
12429;SDS011;6279;42.192;24.326;2023-01-08T02:13:30;25.23;;;12.93;;
12429;SDS011;6279;42.192;24.326;2023-01-08T02:16:24;33.50;;;16.43;;
12429;SDS011;6279;42.192;24.326;2023-01-08T02:19:13;51.97;;;23.07;;
12429;SDS011;6279;42.192;24.326;2023-01-08T02:25:13;79.73;;;31.30;;
12429;SDS011;6279;42.192;24.326;2023-01-08T02:27:46;75.53;;;31.77;;
12429;SDS011;6279;42.192;24.326;2023-01-08T02:30:14;66.70;;;28.37;;
12429;SDS011;6279;42.192;24.326;2023-01-08T02:32:40;55.07;;;24.50;;
12429;SDS011;6279;42.192;24.326;2023-01-08T02:35:07;49.47;;;21.40;;
12429;SDS011;6279;42.192;24.326;2023-01-08T02:37:40;49.33;;;21.17;;
12429;SDS011;6279;42.192;24.326;2023-01-08T02:42:58;42.77;;;19.33;;
12429;SDS011;6279;42.192;24.326;2023-01-08T02:45:47;44.33;;;19.63;;
12429;SDS011;6279;42.192;24.326;2023-01-08T02:48:22;37.07;;;17.33;;
12429;SDS011;6279;42.192;24.326;2023-01-08T02:50:52;37.30;;;16.97;;
12429;SDS011;6279;42.192;24.326;2023-01-08T02:53:27;33.80;;;16.53;;
12429;SDS011;6279;42.192;24.326;2023-01-08T02:56:02;31.40;;;14.23;;
12429;SDS011;6279;42.192;24.326;2023-01-08T02:58:34;30.07;;;14.90;;
12429;SDS011;6279;42.192;24.326;2023-01-08T03:01:01;30.13;;;14.17;;
12429;SDS011;6279;42.192;24.326;2023-01-08T03:03:29;30.77;;;14.70;;
12429;SDS011;6279;42.192;24.326;2023-01-08T03:06:02;29.23;;;14.60;;
12429;SDS011;6279;42.192;24.326;2023-01-08T03:08:35;28.70;;;13.90;;
12429;SDS011;6279;42.192;24.326;2023-01-08T03:11:06;28.70;;;14.07;;
12429;SDS011;6279;42.192;24.326;2023-01-08T03:16:34;47.73;;;21.30;;
12429;SDS011;6279;42.192;24.326;2023-01-08T03:19:13;36.77;;;17.33;;
12429;SDS011;6279;42.192;24.326;2023-01-08T03:21:43;34.57;;;16.43;;
12429;SDS011;6279;42.192;24.326;2023-01-08T03:24:14;37.03;;;17.63;;
12429;SDS011;6279;42.192;24.326;2023-01-08T03:26:44;33.43;;;16.00;;
12429;SDS011;6279;42.192;24.326;2023-01-08T03:29:12;31.50;;;15.73;;
12429;SDS011;6279;42.192;24.326;2023-01-08T03:31:41;31.70;;;15.67;;
12429;SDS011;6279;42.192;24.326;2023-01-08T03:34:08;30.50;;;16.93;;
12429;SDS011;6279;42.192;24.326;2023-01-08T03:36:35;33.07;;;18.20;;
12429;SDS011;6279;42.192;24.326;2023-01-08T03:39:04;32.20;;;19.00;;
12429;SDS011;6279;42.192;24.326;2023-01-08T03:41:38;39.40;;;23.70;;
12429;SDS011;6279;42.192;24.326;2023-01-08T03:44:08;34.60;;;19.53;;
12429;SDS011;6279;42.192;24.326;2023-01-08T03:46:38;33.23;;;15.90;;
12429;SDS011;6279;42.192;24.326;2023-01-08T03:49:11;34.00;;;20.17;;
12429;SDS011;6279;42.192;24.326;2023-01-08T03:51:43;40.07;;;19.03;;
12429;SDS011;6279;42.192;24.326;2023-01-08T03:54:12;28.00;;;16.00;;
12429;SDS011;6279;42.192;24.326;2023-01-08T03:56:40;28.33;;;15.73;;
12429;SDS011;6279;42.192;24.326;2023-01-08T03:59:06;25.30;;;14.97;;
12429;SDS011;6279;42.192;24.326;2023-01-08T04:01:31;27.90;;;15.03;;
12429;SDS011;6279;42.192;24.326;2023-01-08T04:03:57;27.90;;;15.23;;
12429;SDS011;6279;42.192;24.326;2023-01-08T04:06:22;31.73;;;14.57;;
12429;SDS011;6279;42.192;24.326;2023-01-08T04:08:47;23.73;;;13.93;;
12429;SDS011;6279;42.192;24.326;2023-01-08T04:11:13;45.73;;;23.50;;
12429;SDS011;6279;42.192;24.326;2023-01-08T04:13:38;51.10;;;26.07;;
12429;SDS011;6279;42.192;24.326;2023-01-08T04:16:04;61.80;;;34.10;;
12429;SDS011;6279;42.192;24.326;2023-01-08T04:18:30;41.50;;;22.17;;
12429;SDS011;6279;42.192;24.326;2023-01-08T04:20:55;35.57;;;19.50;;
12429;SDS011;6279;42.192;24.326;2023-01-08T04:23:21;33.37;;;18.97;;
12429;SDS011;6279;42.192;24.326;2023-01-08T04:25:46;28.60;;;16.47;;
12429;SDS011;6279;42.192;24.326;2023-01-08T04:28:12;29.63;;;16.40;;
12429;SDS011;6279;42.192;24.326;2023-01-08T04:30:37;29.70;;;16.93;;
12429;SDS011;6279;42.192;24.326;2023-01-08T04:33:02;28.27;;;17.17;;
12429;SDS011;6279;42.192;24.326;2023-01-08T04:35:28;30.73;;;17.73;;
12429;SDS011;6279;42.192;24.326;2023-01-08T04:37:53;26.63;;;16.50;;
12429;SDS011;6279;42.192;24.326;2023-01-08T04:40:19;22.30;;;14.03;;
12429;SDS011;6279;42.192;24.326;2023-01-08T04:42:44;24.23;;;13.30;;
12429;SDS011;6279;42.192;24.326;2023-01-08T04:45:09;20.80;;;11.93;;
12429;SDS011;6279;42.192;24.326;2023-01-08T04:47:35;19.63;;;11.13;;
12429;SDS011;6279;42.192;24.326;2023-01-08T04:50:00;18.63;;;10.37;;
12429;SDS011;6279;42.192;24.326;2023-01-08T04:52:26;23.40;;;10.93;;
12429;SDS011;6279;42.192;24.326;2023-01-08T04:54:52;15.07;;;9.43;;
12429;SDS011;6279;42.192;24.326;2023-01-08T04:57:18;12.50;;;9.03;;
12429;SDS011;6279;42.192;24.326;2023-01-08T04:59:43;16.47;;;9.90;;
12429;SDS011;6279;42.192;24.326;2023-01-08T05:02:09;15.30;;;9.67;;
12429;SDS011;6279;42.192;24.326;2023-01-08T05:04:34;15.37;;;9.70;;
12429;SDS011;6279;42.192;24.326;2023-01-08T05:06:59;14.40;;;9.00;;
12429;SDS011;6279;42.192;24.326;2023-01-08T05:09:25;14.83;;;9.07;;
12429;SDS011;6279;42.192;24.326;2023-01-08T05:11:50;12.47;;;8.53;;
12429;SDS011;6279;42.192;24.326;2023-01-08T05:14:15;15.63;;;8.50;;
12429;SDS011;6279;42.192;24.326;2023-01-08T05:16:41;13.03;;;7.83;;
12429;SDS011;6279;42.192;24.326;2023-01-08T05:19:06;12.70;;;8.23;;
12429;SDS011;6279;42.192;24.326;2023-01-08T05:21:32;14.47;;;9.07;;
12429;SDS011;6279;42.192;24.326;2023-01-08T05:23:58;15.30;;;9.67;;
12429;SDS011;6279;42.192;24.326;2023-01-08T05:26:23;17.87;;;12.60;;
12429;SDS011;6279;42.192;24.326;2023-01-08T05:28:49;19.13;;;12.50;;
12429;SDS011;6279;42.192;24.326;2023-01-08T05:31:14;15.40;;;11.30;;
12429;SDS011;6279;42.192;24.326;2023-01-08T05:33:40;19.43;;;11.43;;
12429;SDS011;6279;42.192;24.326;2023-01-08T05:36:07;19.13;;;11.43;;
12429;SDS011;6279;42.192;24.326;2023-01-08T05:38:33;24.43;;;14.17;;
12429;SDS011;6279;42.192;24.326;2023-01-08T05:40:59;30.40;;;15.97;;
12429;SDS011;6279;42.192;24.326;2023-01-08T05:43:24;25.50;;;15.93;;
12429;SDS011;6279;42.192;24.326;2023-01-08T05:45:50;23.27;;;14.63;;
12429;SDS011;6279;42.192;24.326;2023-01-08T05:48:18;22.33;;;14.30;;
12429;SDS011;6279;42.192;24.326;2023-01-08T05:50:44;21.70;;;13.27;;
12429;SDS011;6279;42.192;24.326;2023-01-08T05:53:09;18.57;;;12.80;;
12429;SDS011;6279;42.192;24.326;2023-01-08T05:55:35;23.43;;;11.73;;
12429;SDS011;6279;42.192;24.326;2023-01-08T05:58:01;17.67;;;11.97;;
12429;SDS011;6279;42.192;24.326;2023-01-08T06:00:27;15.77;;;11.27;;
12429;SDS011;6279;42.192;24.326;2023-01-08T06:02:52;17.83;;;12.10;;
12429;SDS011;6279;42.192;24.326;2023-01-08T06:05:18;18.53;;;11.57;;
12429;SDS011;6279;42.192;24.326;2023-01-08T06:07:44;15.77;;;10.83;;
12429;SDS011;6279;42.192;24.326;2023-01-08T06:10:09;16.17;;;11.00;;
12429;SDS011;6279;42.192;24.326;2023-01-08T06:12:35;15.50;;;11.60;;
12429;SDS011;6279;42.192;24.326;2023-01-08T06:15:00;16.47;;;11.27;;
12429;SDS011;6279;42.192;24.326;2023-01-08T06:17:25;16.43;;;10.90;;
12429;SDS011;6279;42.192;24.326;2023-01-08T06:19:51;19.40;;;12.00;;
12429;SDS011;6279;42.192;24.326;2023-01-08T06:22:16;16.87;;;12.23;;
12429;SDS011;6279;42.192;24.326;2023-01-08T06:24:42;22.93;;;11.50;;
12429;SDS011;6279;42.192;24.326;2023-01-08T06:27:07;18.40;;;11.97;;
12429;SDS011;6279;42.192;24.326;2023-01-08T06:29:32;22.03;;;14.40;;
12429;SDS011;6279;42.192;24.326;2023-01-08T06:31:58;22.27;;;15.67;;
12429;SDS011;6279;42.192;24.326;2023-01-08T06:34:23;24.27;;;17.97;;
12429;SDS011;6279;42.192;24.326;2023-01-08T06:36:49;20.67;;;13.40;;
12429;SDS011;6279;42.192;24.326;2023-01-08T06:39:15;15.73;;;10.47;;
12429;SDS011;6279;42.192;24.326;2023-01-08T06:41:44;13.73;;;9.70;;
12429;SDS011;6279;42.192;24.326;2023-01-08T06:44:09;13.87;;;10.23;;
12429;SDS011;6279;42.192;24.326;2023-01-08T06:46:37;15.00;;;11.43;;
12429;SDS011;6279;42.192;24.326;2023-01-08T06:49:07;16.03;;;11.97;;
12429;SDS011;6279;42.192;24.326;2023-01-08T06:51:33;21.87;;;14.43;;
12429;SDS011;6279;42.192;24.326;2023-01-08T06:54:00;23.67;;;15.17;;
12429;SDS011;6279;42.192;24.326;2023-01-08T06:56:25;47.53;;;30.60;;
12429;SDS011;6279;42.192;24.326;2023-01-08T06:58:51;47.13;;;29.97;;
12429;SDS011;6279;42.192;24.326;2023-01-08T07:01:16;31.17;;;18.93;;
12429;SDS011;6279;42.192;24.326;2023-01-08T07:03:42;22.60;;;14.67;;
12429;SDS011;6279;42.192;24.326;2023-01-08T07:06:18;23.43;;;15.80;;
12429;SDS011;6279;42.192;24.326;2023-01-08T07:08:44;26.93;;;16.60;;
12429;SDS011;6279;42.192;24.326;2023-01-08T07:11:11;28.17;;;18.57;;
12429;SDS011;6279;42.192;24.326;2023-01-08T07:13:37;44.80;;;32.27;;
12429;SDS011;6279;42.192;24.326;2023-01-08T07:16:09;25.53;;;17.80;;
12429;SDS011;6279;42.192;24.326;2023-01-08T07:18:36;24.97;;;17.63;;
12429;SDS011;6279;42.192;24.326;2023-01-08T07:21:03;14.60;;;10.60;;
12429;SDS011;6279;42.192;24.326;2023-01-08T07:23:30;13.30;;;10.47;;
12429;SDS011;6279;42.192;24.326;2023-01-08T07:25:58;13.23;;;9.93;;
12429;SDS011;6279;42.192;24.326;2023-01-08T07:28:25;24.80;;;15.33;;
12429;SDS011;6279;42.192;24.326;2023-01-08T07:30:50;22.57;;;14.67;;
12429;SDS011;6279;42.192;24.326;2023-01-08T07:33:16;23.37;;;15.27;;
12429;SDS011;6279;42.192;24.326;2023-01-08T07:35:41;20.63;;;15.03;;
12429;SDS011;6279;42.192;24.326;2023-01-08T07:38:07;20.30;;;13.27;;
12429;SDS011;6279;42.192;24.326;2023-01-08T07:40:32;18.90;;;13.33;;
12429;SDS011;6279;42.192;24.326;2023-01-08T07:42:58;20.40;;;15.97;;
12429;SDS011;6279;42.192;24.326;2023-01-08T07:45:25;25.23;;;19.20;;
12429;SDS011;6279;42.192;24.326;2023-01-08T07:48:00;21.93;;;16.47;;
12429;SDS011;6279;42.192;24.326;2023-01-08T07:50:25;28.00;;;18.63;;
12429;SDS011;6279;42.192;24.326;2023-01-08T07:52:51;27.00;;;18.90;;
12429;SDS011;6279;42.192;24.326;2023-01-08T07:55:17;29.13;;;22.60;;
12429;SDS011;6279;42.192;24.326;2023-01-08T07:57:42;33.20;;;24.27;;
12429;SDS011;6279;42.192;24.326;2023-01-08T08:00:08;28.13;;;21.63;;
12429;SDS011;6279;42.192;24.326;2023-01-08T08:02:34;27.27;;;21.13;;
12429;SDS011;6279;42.192;24.326;2023-01-08T08:04:59;26.53;;;20.63;;
12429;SDS011;6279;42.192;24.326;2023-01-08T08:07:25;26.03;;;20.40;;
12429;SDS011;6279;42.192;24.326;2023-01-08T08:09:52;27.27;;;19.10;;
12429;SDS011;6279;42.192;24.326;2023-01-08T08:12:18;26.60;;;19.67;;
12429;SDS011;6279;42.192;24.326;2023-01-08T08:14:44;25.00;;;19.23;;
12429;SDS011;6279;42.192;24.326;2023-01-08T08:17:10;24.10;;;18.87;;
12429;SDS011;6279;42.192;24.326;2023-01-08T08:19:35;23.87;;;17.90;;
12429;SDS011;6279;42.192;24.326;2023-01-08T08:22:00;25.57;;;17.87;;
12429;SDS011;6279;42.192;24.326;2023-01-08T08:24:26;21.67;;;17.80;;
12429;SDS011;6279;42.192;24.326;2023-01-08T08:26:51;25.20;;;19.40;;
12429;SDS011;6279;42.192;24.326;2023-01-08T08:29:18;37.67;;;23.20;;
12429;SDS011;6279;42.192;24.326;2023-01-08T08:31:44;26.10;;;16.93;;
12429;SDS011;6279;42.192;24.326;2023-01-08T08:34:09;25.13;;;17.97;;
12429;SDS011;6279;42.192;24.326;2023-01-08T08:36:34;25.33;;;17.70;;
12429;SDS011;6279;42.192;24.326;2023-01-08T08:39:02;24.73;;;16.20;;
12429;SDS011;6279;42.192;24.326;2023-01-08T08:41:28;18.27;;;13.13;;
12429;SDS011;6279;42.192;24.326;2023-01-08T08:43:53;13.37;;;10.07;;
12429;SDS011;6279;42.192;24.326;2023-01-08T08:46:19;13.03;;;10.40;;
12429;SDS011;6279;42.192;24.326;2023-01-08T08:48:44;15.87;;;11.03;;
12429;SDS011;6279;42.192;24.326;2023-01-08T08:51:10;16.37;;;12.07;;
12429;SDS011;6279;42.192;24.326;2023-01-08T08:53:36;15.40;;;11.03;;
12429;SDS011;6279;42.192;24.326;2023-01-08T08:56:01;13.10;;;9.17;;
12429;SDS011;6279;42.192;24.326;2023-01-08T08:58:27;13.87;;;9.73;;
12429;SDS011;6279;42.192;24.326;2023-01-08T09:00:53;13.33;;;10.37;;
12429;SDS011;6279;42.192;24.326;2023-01-08T09:03:18;13.30;;;10.50;;
12429;SDS011;6279;42.192;24.326;2023-01-08T09:05:43;14.47;;;10.73;;
12429;SDS011;6279;42.192;24.326;2023-01-08T09:08:09;13.03;;;11.00;;
12429;SDS011;6279;42.192;24.326;2023-01-08T09:10:36;12.43;;;9.40;;
12429;SDS011;6279;42.192;24.326;2023-01-08T09:13:02;11.90;;;9.30;;
12429;SDS011;6279;42.192;24.326;2023-01-08T09:15:27;10.37;;;8.50;;
12429;SDS011;6279;42.192;24.326;2023-01-08T09:17:56;12.07;;;9.23;;
12429;SDS011;6279;42.192;24.326;2023-01-08T09:20:22;13.47;;;10.50;;
12429;SDS011;6279;42.192;24.326;2023-01-08T09:22:49;13.60;;;10.67;;
12429;SDS011;6279;42.192;24.326;2023-01-08T09:25:14;9.63;;;7.23;;
12429;SDS011;6279;42.192;24.326;2023-01-08T09:27:40;9.40;;;7.20;;
12429;SDS011;6279;42.192;24.326;2023-01-08T09:30:09;10.80;;;7.87;;
12429;SDS011;6279;42.192;24.326;2023-01-08T09:32:35;12.37;;;7.27;;
12429;SDS011;6279;42.192;24.326;2023-01-08T09:35:01;10.73;;;8.17;;
12429;SDS011;6279;42.192;24.326;2023-01-08T09:37:27;10.13;;;6.97;;
12429;SDS011;6279;42.192;24.326;2023-01-08T09:39:52;11.00;;;7.73;;
12429;SDS011;6279;42.192;24.326;2023-01-08T09:42:19;8.87;;;7.97;;
12429;SDS011;6279;42.192;24.326;2023-01-08T09:44:47;9.60;;;7.13;;
12429;SDS011;6279;42.192;24.326;2023-01-08T09:49:52;10.10;;;6.37;;
12429;SDS011;6279;42.192;24.326;2023-01-08T09:52:21;7.90;;;7.03;;
12429;SDS011;6279;42.192;24.326;2023-01-08T09:54:47;8.50;;;6.93;;
12429;SDS011;6279;42.192;24.326;2023-01-08T09:57:14;8.17;;;7.27;;
12429;SDS011;6279;42.192;24.326;2023-01-08T09:59:41;8.23;;;7.27;;
12429;SDS011;6279;42.192;24.326;2023-01-08T10:02:29;8.90;;;7.30;;
12429;SDS011;6279;42.192;24.326;2023-01-08T10:04:56;9.00;;;7.17;;
12429;SDS011;6279;42.192;24.326;2023-01-08T10:07:23;7.20;;;6.30;;
12429;SDS011;6279;42.192;24.326;2023-01-08T10:09:50;9.40;;;7.00;;
12429;SDS011;6279;42.192;24.326;2023-01-08T10:12:19;7.57;;;6.50;;
12429;SDS011;6279;42.192;24.326;2023-01-08T10:14:48;9.63;;;7.67;;
12429;SDS011;6279;42.192;24.326;2023-01-08T10:20:13;9.20;;;7.33;;
12429;SDS011;6279;42.192;24.326;2023-01-08T10:22:43;9.87;;;8.00;;
12429;SDS011;6279;42.192;24.326;2023-01-08T10:25:13;7.10;;;6.40;;
12429;SDS011;6279;42.192;24.326;2023-01-08T10:30:28;8.17;;;5.97;;
12429;SDS011;6279;42.192;24.326;2023-01-08T10:33:02;8.10;;;5.60;;
12429;SDS011;6279;42.192;24.326;2023-01-08T10:35:36;6.87;;;5.67;;
12429;SDS011;6279;42.192;24.326;2023-01-08T10:38:04;7.77;;;6.47;;
12429;SDS011;6279;42.192;24.326;2023-01-08T10:40:39;7.63;;;6.57;;
12429;SDS011;6279;42.192;24.326;2023-01-08T10:43:28;13.73;;;9.57;;
12429;SDS011;6279;42.192;24.326;2023-01-08T10:45:56;7.90;;;6.10;;
12429;SDS011;6279;42.192;24.326;2023-01-08T10:48:28;7.43;;;6.20;;
12429;SDS011;6279;42.192;24.326;2023-01-08T10:51:20;7.63;;;6.00;;
12429;SDS011;6279;42.192;24.326;2023-01-08T10:53:50;9.60;;;5.50;;
12429;SDS011;6279;42.192;24.326;2023-01-08T10:56:24;11.93;;;6.23;;
12429;SDS011;6279;42.192;24.326;2023-01-08T10:58:55;10.20;;;6.40;;
12429;SDS011;6279;42.192;24.326;2023-01-08T11:01:27;11.80;;;7.03;;
12429;SDS011;6279;42.192;24.326;2023-01-08T11:03:55;106.80;;;57.50;;
12429;SDS011;6279;42.192;24.326;2023-01-08T11:06:24;23.97;;;15.83;;
12429;SDS011;6279;42.192;24.326;2023-01-08T11:08:52;11.17;;;9.17;;
12429;SDS011;6279;42.192;24.326;2023-01-08T11:11:22;11.67;;;8.23;;
12429;SDS011;6279;42.192;24.326;2023-01-08T11:13:55;13.13;;;8.47;;
12429;SDS011;6279;42.192;24.326;2023-01-08T11:16:32;11.13;;;7.27;;
12429;SDS011;6279;42.192;24.326;2023-01-08T11:19:03;10.13;;;7.33;;
12429;SDS011;6279;42.192;24.326;2023-01-08T11:21:30;9.47;;;6.97;;
12429;SDS011;6279;42.192;24.326;2023-01-08T11:24:10;11.13;;;7.37;;
12429;SDS011;6279;42.192;24.326;2023-01-08T11:26:39;10.57;;;7.53;;
12429;SDS011;6279;42.192;24.326;2023-01-08T11:29:21;12.20;;;7.60;;
12429;SDS011;6279;42.192;24.326;2023-01-08T11:31:54;12.50;;;7.40;;
12429;SDS011;6279;42.192;24.326;2023-01-08T11:37:13;10.30;;;7.77;;
12429;SDS011;6279;42.192;24.326;2023-01-08T11:39:43;11.33;;;8.10;;
12429;SDS011;6279;42.192;24.326;2023-01-08T11:42:19;12.83;;;8.10;;
12429;SDS011;6279;42.192;24.326;2023-01-08T12:04:22;10.97;;;8.67;;
12429;SDS011;6279;42.192;24.326;2023-01-08T12:12:16;13.50;;;9.73;;
12429;SDS011;6279;42.192;24.326;2023-01-08T12:14:59;12.60;;;9.33;;
12429;SDS011;6279;42.192;24.326;2023-01-08T12:34:05;14.93;;;9.63;;
12429;SDS011;6279;42.192;24.326;2023-01-08T12:36:38;16.30;;;10.13;;
12429;SDS011;6279;42.192;24.326;2023-01-08T12:39:11;12.67;;;9.93;;
12429;SDS011;6279;42.192;24.326;2023-01-08T12:41:41;17.63;;;10.50;;
12429;SDS011;6279;42.192;24.326;2023-01-08T12:44:10;14.90;;;10.50;;
12429;SDS011;6279;42.192;24.326;2023-01-08T12:46:44;12.63;;;9.97;;
12429;SDS011;6279;42.192;24.326;2023-01-08T12:49:13;15.50;;;9.37;;
12429;SDS011;6279;42.192;24.326;2023-01-08T12:56:54;14.47;;;8.97;;
12429;SDS011;6279;42.192;24.326;2023-01-08T13:04:57;12.53;;;9.67;;
12429;SDS011;6279;42.192;24.326;2023-01-08T13:07:47;12.70;;;9.43;;
12429;SDS011;6279;42.192;24.326;2023-01-08T13:12:58;13.70;;;9.50;;
12429;SDS011;6279;42.192;24.326;2023-01-08T13:15:33;13.60;;;8.33;;
12429;SDS011;6279;42.192;24.326;2023-01-08T13:18:17;11.63;;;8.83;;
12429;SDS011;6279;42.192;24.326;2023-01-08T13:20:56;16.20;;;10.33;;
12429;SDS011;6279;42.192;24.326;2023-01-08T13:23:28;12.30;;;8.90;;
12429;SDS011;6279;42.192;24.326;2023-01-08T13:25:58;16.20;;;11.57;;
12429;SDS011;6279;42.192;24.326;2023-01-08T13:33:44;12.60;;;9.03;;
12429;SDS011;6279;42.192;24.326;2023-01-08T13:38:37;18.33;;;8.23;;
12429;SDS011;6279;42.192;24.326;2023-01-08T13:41:03;15.47;;;7.87;;
12429;SDS011;6279;42.192;24.326;2023-01-08T13:43:37;13.10;;;8.03;;
12429;SDS011;6279;42.192;24.326;2023-01-08T13:46:07;11.40;;;8.50;;
12429;SDS011;6279;42.192;24.326;2023-01-08T13:48:46;9.67;;;7.07;;
12429;SDS011;6279;42.192;24.326;2023-01-08T13:51:47;9.20;;;6.87;;
12429;SDS011;6279;42.192;24.326;2023-01-08T13:54:14;8.90;;;6.43;;
12429;SDS011;6279;42.192;24.326;2023-01-08T13:57:01;10.23;;;7.03;;
12429;SDS011;6279;42.192;24.326;2023-01-08T14:02:00;9.40;;;6.73;;
12429;SDS011;6279;42.192;24.326;2023-01-08T14:04:26;10.80;;;7.10;;
12429;SDS011;6279;42.192;24.326;2023-01-08T14:06:51;10.63;;;6.73;;
12429;SDS011;6279;42.192;24.326;2023-01-08T14:09:21;10.10;;;6.83;;
12429;SDS011;6279;42.192;24.326;2023-01-08T14:11:47;9.50;;;7.30;;
12429;SDS011;6279;42.192;24.326;2023-01-08T14:14:16;12.27;;;7.23;;
12429;SDS011;6279;42.192;24.326;2023-01-08T14:16:44;11.70;;;7.73;;
12429;SDS011;6279;42.192;24.326;2023-01-08T14:19:13;14.20;;;8.70;;
12429;SDS011;6279;42.192;24.326;2023-01-08T14:21:54;15.13;;;10.33;;
12429;SDS011;6279;42.192;24.326;2023-01-08T14:24:23;17.73;;;11.60;;
12429;SDS011;6279;42.192;24.326;2023-01-08T14:26:53;16.63;;;11.83;;
12429;SDS011;6279;42.192;24.326;2023-01-08T14:29:22;17.87;;;11.83;;
12429;SDS011;6279;42.192;24.326;2023-01-08T14:31:53;19.73;;;13.27;;
12429;SDS011;6279;42.192;24.326;2023-01-08T14:34:20;16.37;;;10.87;;
12429;SDS011;6279;42.192;24.326;2023-01-08T14:36:50;18.23;;;11.90;;
12429;SDS011;6279;42.192;24.326;2023-01-08T14:39:22;15.73;;;11.33;;
12429;SDS011;6279;42.192;24.326;2023-01-08T14:41:49;19.73;;;12.97;;
12429;SDS011;6279;42.192;24.326;2023-01-08T14:44:36;22.07;;;12.97;;
12429;SDS011;6279;42.192;24.326;2023-01-08T14:47:11;20.83;;;13.70;;
12429;SDS011;6279;42.192;24.326;2023-01-08T14:49:40;21.23;;;13.67;;
12429;SDS011;6279;42.192;24.326;2023-01-08T14:52:09;21.63;;;13.70;;
12429;SDS011;6279;42.192;24.326;2023-01-08T14:54:37;19.43;;;13.70;;
12429;SDS011;6279;42.192;24.326;2023-01-08T14:57:02;20.43;;;13.80;;
12429;SDS011;6279;42.192;24.326;2023-01-08T14:59:32;23.53;;;15.30;;
12429;SDS011;6279;42.192;24.326;2023-01-08T15:02:01;28.77;;;17.97;;
12429;SDS011;6279;42.192;24.326;2023-01-08T15:04:29;34.87;;;21.13;;
12429;SDS011;6279;42.192;24.326;2023-01-08T15:07:13;31.23;;;18.37;;
12429;SDS011;6279;42.192;24.326;2023-01-08T15:09:53;36.00;;;22.87;;
12429;SDS011;6279;42.192;24.326;2023-01-08T15:12:24;43.83;;;27.70;;
12429;SDS011;6279;42.192;24.326;2023-01-08T15:14:51;36.33;;;21.27;;
12429;SDS011;6279;42.192;24.326;2023-01-08T15:17:19;42.07;;;28.77;;
12429;SDS011;6279;42.192;24.326;2023-01-08T15:19:47;44.57;;;27.77;;
12429;SDS011;6279;42.192;24.326;2023-01-08T15:22:23;48.40;;;30.47;;
12429;SDS011;6279;42.192;24.326;2023-01-08T15:24:57;46.67;;;29.93;;
12429;SDS011;6279;42.192;24.326;2023-01-08T15:27:24;42.57;;;24.90;;
12429;SDS011;6279;42.192;24.326;2023-01-08T15:29:51;44.87;;;26.97;;
12429;SDS011;6279;42.192;24.326;2023-01-08T15:32:34;49.17;;;31.13;;
12429;SDS011;6279;42.192;24.326;2023-01-08T15:35:03;65.70;;;39.40;;
12429;SDS011;6279;42.192;24.326;2023-01-08T15:37:38;60.23;;;36.03;;
12429;SDS011;6279;42.192;24.326;2023-01-08T15:40:05;62.37;;;35.90;;
12429;SDS011;6279;42.192;24.326;2023-01-08T15:42:33;58.97;;;35.03;;
12429;SDS011;6279;42.192;24.326;2023-01-08T15:45:18;70.07;;;38.93;;
12429;SDS011;6279;42.192;24.326;2023-01-08T15:47:45;72.67;;;42.13;;
12429;SDS011;6279;42.192;24.326;2023-01-08T15:50:11;87.63;;;45.67;;
12429;SDS011;6279;42.192;24.326;2023-01-08T15:52:37;84.37;;;45.20;;
12429;SDS011;6279;42.192;24.326;2023-01-08T15:55:09;75.63;;;40.80;;
12429;SDS011;6279;42.192;24.326;2023-01-08T15:57:41;60.10;;;34.07;;
12429;SDS011;6279;42.192;24.326;2023-01-08T16:00:07;55.60;;;32.13;;
12429;SDS011;6279;42.192;24.326;2023-01-08T16:02:42;59.53;;;31.77;;
12429;SDS011;6279;42.192;24.326;2023-01-08T16:05:12;58.23;;;32.50;;
12429;SDS011;6279;42.192;24.326;2023-01-08T16:07:38;75.70;;;41.27;;
12429;SDS011;6279;42.192;24.326;2023-01-08T16:10:04;77.70;;;41.43;;
12429;SDS011;6279;42.192;24.326;2023-01-08T16:12:30;111.60;;;61.97;;